Main page
METAR-TAF:

METAR-TAF

Airports :

Los Angeles, California, United States

Los Angeles International Airport

latitude: 33-56-17N, longitude: 118-23-20W, elevation: 38 m

Current weather observation

The report was made 1 hour and 3 minutes ago, at 08:53 UTC
Wind 5 kt from the East/Southeast
Temperature 17°C
Humidity 63%
Pressure 1019 hPa
Visibility: 16.1 km
Clear sky

METAR: KLAX 220853Z 11005KT 10SM CLR 17/10 A3010 RMK AO2 SLP189 T01720100 51000

Time: 02:56 (09:56 UTC)

Forecast

The report was made 1 hour and 16 minutes ago, at 08:40 UTC
Forecast valid from 22 at 09 UTC to 23 at 12 UTC
Wind 3 kt from variable directions
Visibility: 10 km
Clear sky
From 22 at 2000 UTC
Wind 12 kt from the West
Visibility: 10 km
Clear sky
From 23 at 0300 UTC
Wind 6 kt from the West
Visibility: 10 km
Clear sky
From 23 at 0600 UTC
Wind 3 kt from variable directions
Visibility: 10 km
Clear sky

TAF: KLAX 220840Z 2209/2312 VRB03KT P6SM SKC FM222000 27012KT P6SM SKC FM230300 27006KT P6SM SKC FM230600 VRB03KT P6SM SKC

Weather observations and forecasts of more than 4000 airports (METAR and TAF reports).

The available stations are represented by yellow and red dots on the map.

Hover mouse over dot to see the name of the station.

Then click to see weather observations and forecasts.

To change the map : click on the green buttons with a black cross to zoom in, on the green button with a dash to zoom out, or on the green arrows for adjacent maps.


METAR-TAF: